Time;durP1;ratioP1;P1;durP2;ratioP2;P2;SDS_P1;SDS_P2;PMS_P1;PMS_P2;Temp;Humidity;BMP_temperature;BMP_pressure;BME280_temperature;BME280_humidity;BME280_pressure;Samples;Min_cycle;Max_cycle;Signal;HPM_P1;HPM_P2
2023/10/05 03:02:06;;;;;;;9.70;3.05;;;13.90;99.90;;;;;;5326928;22;19922;-74
2023/10/05 03:04:46;;;;;;;10.57;1.85;;;14.00;99.90;;;;;;4995546;28;20485;-75
2023/10/05 03:07:17;;;;;;;12.35;2.33;;;14.00;99.90;;;;;;4979519;28;20046;-75
2023/10/05 03:09:43;;;;;;;13.88;2.65;;;14.10;99.90;;;;;;4995419;28;20085;-76
2023/10/05 03:12:11;;;;;;;13.15;2.85;;;14.10;99.90;;;;;;4995633;28;20390;-76
2023/10/05 03:14:36;;;;;;;10.20;2.22;;;14.20;99.90;;;;;;4996828;28;20045;-75
2023/10/05 03:17:05;;;;;;;9.75;2.30;;;14.20;99.90;;;;;;4995243;28;20046;-76
2023/10/05 03:19:36;;;;;;;17.52;2.42;;;14.20;99.90;;;;;;4996783;28;20049;-76
2023/10/05 03:22:05;;;;;;;12.23;2.78;;;14.30;99.90;;;;;;4995173;28;20096;-76
2023/10/05 03:24:33;;;;;;;15.32;2.17;;;14.30;99.90;;;;;;4995147;28;20072;-76
2023/10/05 03:27:03;;;;;;;14.70;2.40;;;14.30;99.90;;;;;;4995109;28;20125;-76
2023/10/05 03:29:35;;;;;;;11.38;2.70;;;14.30;99.90;;;;;;4995252;28;20038;-76
2023/10/05 03:34:39;;;;;;;11.10;2.20;;;14.40;99.90;;;;;;4995171;28;20444;-76
2023/10/05 03:37:08;;;;;;;14.00;2.63;;;14.40;99.90;;;;;;4994847;28;20081;-74
2023/10/05 03:42:14;;;;;;;11.70;2.38;;;14.40;99.90;;;;;;4994752;28;20046;-76
2023/10/05 03:44:40;;;;;;;15.35;2.50;;;14.30;99.90;;;;;;4994894;28;20045;-75
2023/10/05 03:47:06;;;;;;;13.52;2.28;;;14.30;99.90;;;;;;4996530;28;20470;-76
2023/10/05 03:49:31;;;;;;;12.75;2.42;;;14.40;99.90;;;;;;4994956;28;20056;-76
2023/10/05 03:51:57;;;;;;;9.48;2.83;;;14.30;99.90;;;;;;4995834;28;20077;-76
2023/10/05 03:54:25;;;;;;;14.60;2.20;;;14.30;99.90;;;;;;4994826;28;20045;-77
2023/10/05 03:57:04;;;;;;;16.42;2.35;;;14.30;99.90;;;;;;4994497;28;20046;-75
2023/10/05 03:59:32;;;;;;;12.30;2.25;;;14.30;99.90;;;;;;4994714;28;20046;-75
2023/10/05 04:01:59;;;;;;;15.77;2.80;;;14.30;99.90;;;;;;4994180;28;20096;-76
2023/10/05 04:04:28;;;;;;;14.77;2.72;;;14.30;99.90;;;;;;4994385;28;20046;-75
2023/10/05 04:06:54;;;;;;;11.82;2.40;;;14.20;99.90;;;;;;4994644;28;20053;-75
2023/10/05 04:09:19;;;;;;;12.00;2.40;;;14.30;99.90;;;;;;4994230;28;20046;-76
2023/10/05 04:11:45;;;;;;;13.10;2.83;;;14.20;99.90;;;;;;4994110;28;20073;-75
2023/10/05 04:14:12;;;;;;;15.93;2.35;;;14.20;99.90;;;;;;4994133;28;20042;-75
2023/10/05 04:16:38;;;;;;;13.88;2.85;;;14.20;99.90;;;;;;4994278;28;20050;-75
2023/10/05 04:19:04;;;;;;;13.85;2.30;;;14.20;99.90;;;;;;4994400;28;20174;-76
2023/10/05 04:21:31;;;;;;;11.77;2.58;;;14.20;99.90;;;;;;4995217;28;20039;-76
2023/10/05 04:23:59;;;;;;;13.38;2.40;;;14.20;99.90;;;;;;4995235;28;20034;-75
2023/10/05 04:26:34;;;;;;;11.95;2.40;;;14.10;99.90;;;;;;4995266;28;20064;-75
2023/10/05 04:29:04;;;;;;;11.20;2.20;;;14.10;99.90;;;;;;4995353;28;20043;-76
2023/10/05 04:31:31;;;;;;;12.65;2.60;;;14.10;99.90;;;;;;4993867;28;20081;-76
2023/10/05 04:33:57;;;;;;;11.80;2.38;;;14.10;99.90;;;;;;4993855;28;20401;-77
2023/10/05 04:36:25;;;;;;;15.15;2.35;;;14.10;99.90;;;;;;4994046;28;20042;-76
2023/10/05 04:38:54;;;;;;;12.13;2.05;;;14.00;99.90;;;;;;4993718;28;20133;-77
2023/10/05 04:41:27;;;;;;;14.43;2.70;;;14.00;99.90;;;;;;4994915;28;20035;-76
2023/10/05 04:43:56;;;;;;;11.27;2.20;;;14.10;99.90;;;;;;4994050;28;20089;-76
2023/10/05 04:46:23;;;;;;;12.32;2.38;;;14.00;99.90;;;;;;4995439;28;20070;-76
2023/10/05 04:51:35;;;;;;;12.93;2.80;;;14.00;99.90;;;;;;4993477;28;20053;-76
2023/10/05 04:54:01;;;;;;;13.60;2.22;;;14.00;99.90;;;;;;4994041;28;20370;-76
2023/10/05 05:07:01;;;;;;;12.55;2.38;;;14.00;99.90;;;;;;4993590;28;20054;-76
2023/10/05 05:09:30;;;;;;;13.07;2.75;;;14.00;99.90;;;;;;4994502;28;20073;-76
2023/10/05 05:12:03;;;;;;;15.18;2.22;;;14.00;99.90;;;;;;4993277;28;20038;-75
2023/10/05 05:14:36;;;;;;;15.65;2.67;;;14.00;99.90;;;;;;4994341;28;20414;-76
2023/10/05 05:17:06;;;;;;;14.38;2.60;;;14.00;99.90;;;;;;4994928;28;20057;-77
2023/10/05 05:19:34;;;;;;;12.27;2.60;;;14.00;99.90;;;;;;4993281;28;20053;-75
2023/10/05 05:22:00;;;;;;;13.95;3.03;;;14.00;99.90;;;;;;4994183;28;20038;-76
2023/10/05 05:24:29;;;;;;;14.35;2.60;;;14.00;99.90;;;;;;4992228;28;20363;-76
2023/10/05 05:27:01;;;;;;;12.13;2.25;;;14.00;99.90;;;;;;4992827;28;20049;-76
2023/10/05 05:29:32;;;;;;;13.45;2.72;;;14.00;99.90;;;;;;4993022;28;20050;-76
2023/10/05 05:32:10;;;;;;;10.55;2.40;;;14.00;99.90;;;;;;4992746;28;20073;-75
2023/10/05 05:34:43;;;;;;;14.05;2.92;;;14.00;99.90;;;;;;4992765;28;20092;-76
2023/10/05 05:37:43;;;;;;;10.40;2.30;;;14.10;99.90;;;;;;4992881;28;20133;-76
2023/10/05 05:40:12;;;;;;;18.65;3.15;;;14.10;99.90;;;;;;4992247;28;20051;-75
2023/10/05 05:42:39;;;;;;;15.02;2.67;;;14.10;99.90;;;;;;4992505;28;20074;-75
2023/10/05 05:45:24;;;;;;;13.50;2.38;;;14.10;99.90;;;;;;4992759;28;20057;-76
2023/10/05 05:47:51;;;;;;;9.63;2.40;;;14.10;99.90;;;;;;4992720;28;20116;-76
2023/10/05 05:50:23;;;;;;;12.43;2.83;;;14.20;99.90;;;;;;4992319;28;20038;-76
2023/10/05 05:52:51;;;;;;;15.55;2.65;;;14.20;99.90;;;;;;4992577;28;20058;-76
2023/10/05 05:55:20;;;;;;;16.85;2.65;;;14.20;99.90;;;;;;4992556;28;20121;-75
2023/10/05 05:57:46;;;;;;;13.70;2.55;;;14.20;99.90;;;;;;4992366;28;20061;-77
2023/10/05 06:00:12;;;;;;;13.93;2.65;;;14.20;99.90;;;;;;4994118;28;20035;-75
2023/10/05 06:02:40;;;;;;;13.70;3.60;;;14.20;99.90;;;;;;4992183;28;20482;-75
2023/10/05 06:05:08;;;;;;;9.82;2.78;;;14.20;99.90;;;;;;4994071;28;20113;-75
2023/10/05 06:07:39;;;;;;;15.30;3.25;;;14.30;99.90;;;;;;4992277;28;20100;-76
2023/10/05 06:10:12;;;;;;;16.00;2.60;;;14.20;99.90;;;;;;4996568;28;20046;-75
2023/10/05 06:12:51;;;;;;;17.20;3.30;;;14.30;99.90;;;;;;4996536;28;20076;-76
2023/10/05 06:15:16;;;;;;;16.80;3.00;;;14.30;99.90;;;;;;4996736;28;20072;-75
2023/10/05 06:17:46;;;;;;;15.00;2.92;;;14.30;99.90;;;;;;4997898;28;20042;-74
2023/10/05 06:20:15;;;;;;;13.48;2.70;;;14.30;99.90;;;;;;4996625;28;20056;-76
2023/10/05 06:22:43;;;;;;;13.60;2.58;;;14.40;99.90;;;;;;4996698;28;20382;-75
2023/10/05 06:25:09;;;;;;;12.68;2.80;;;14.40;99.90;;;;;;4981701;28;20066;-76
2023/10/05 06:27:37;;;;;;;14.48;3.55;;;14.40;99.90;;;;;;4976744;28;20101;-76
2023/10/05 06:30:10;;;;;;;15.18;2.80;;;14.40;99.90;;;;;;4976774;28;20054;-75
2023/10/05 06:32:36;;;;;;;10.98;2.67;;;14.40;99.90;;;;;;4976802;28;20073;-75
2023/10/05 06:35:03;;;;;;;19.38;3.00;;;14.40;99.90;;;;;;4976714;28;20501;-75
2023/10/05 06:37:29;;;;;;;13.15;2.75;;;14.40;99.90;;;;;;4976460;28;20057;-76
2023/10/05 06:39:55;;;;;;;17.92;2.88;;;14.40;99.90;;;;;;4976555;28;20554;-76
2023/10/05 06:42:21;;;;;;;14.82;3.22;;;14.40;99.90;;;;;;4977759;28;20038;-77
2023/10/05 06:44:48;;;;;;;16.65;3.63;;;14.40;99.90;;;;;;4976505;28;20405;-75
2023/10/05 06:47:35;;;;;;;13.65;3.10;;;14.40;99.90;;;;;;4976523;28;20050;-75
2023/10/05 06:50:00;;;;;;;13.95;2.70;;;14.50;99.90;;;;;;4976405;28;20057;-75
2023/10/05 06:52:26;;;;;;;14.13;3.42;;;14.50;99.90;;;;;;4976507;28;20441;-75
2023/10/05 06:54:51;;;;;;;13.70;3.20;;;14.50;99.90;;;;;;4978101;28;20485;-74
2023/10/05 06:57:17;;;;;;;14.20;2.97;;;14.50;99.90;;;;;;4976390;28;20105;-74
2023/10/05 06:59:43;;;;;;;12.25;3.10;;;14.50;99.90;;;;;;4977794;28;20077;-75
2023/10/05 07:02:09;;;;;;;17.13;3.20;;;14.50;99.90;;;;;;4977318;28;20126;-75
2023/10/05 07:04:35;;;;;;;11.93;2.83;;;14.50;99.90;;;;;;4960818;28;20098;-75
2023/10/05 07:07:03;;;;;;;11.70;3.10;;;14.60;99.90;;;;;;4976314;28;20510;-75
2023/10/05 07:09:32;;;;;;;16.98;3.22;;;14.60;99.90;;;;;;4987939;28;20129;-76
2023/10/05 07:11:58;;;;;;;16.35;3.60;;;14.70;99.90;;;;;;4995339;28;20047;-75
2023/10/05 07:14:24;;;;;;;17.65;3.20;;;14.70;99.90;;;;;;4996953;28;20051;-78
2023/10/05 07:16:50;;;;;;;16.15;2.97;;;14.70;99.90;;;;;;4995546;28;20430;-75
2023/10/05 07:19:17;;;;;;;21.35;3.60;;;14.70;99.90;;;;;;4996519;28;20049;-76
2023/10/05 07:21:43;;;;;;;22.38;4.32;;;14.80;99.90;;;;;;4995416;28;20045;-74
2023/10/05 07:24:08;;;;;;;17.05;3.10;;;14.80;99.90;;;;;;4995146;28;20042;-74
2023/10/05 07:26:34;;;;;;;12.85;2.88;;;14.80;99.90;;;;;;4995257;28;20115;-75
2023/10/05 07:29:01;;;;;;;14.18;3.13;;;14.80;99.90;;;;;;4995453;28;20058;-75
2023/10/05 07:31:26;;;;;;;14.75;3.13;;;14.80;99.90;;;;;;4996060;28;20057;-74
2023/10/05 07:33:52;;;;;;;15.75;3.08;;;14.90;99.90;;;;;;4996403;28;20046;-75
2023/10/05 07:36:18;;;;;;;18.27;3.88;;;14.90;99.90;;;;;;4994899;28;20046;-75
2023/10/05 07:38:44;;;;;;;14.52;2.75;;;14.90;99.90;;;;;;4978774;28;20125;-75
2023/10/05 07:41:11;;;;;;;18.33;2.85;;;14.90;99.90;;;;;;4996599;28;20047;-75
2023/10/05 07:43:37;;;;;;;17.38;3.10;;;15.00;99.90;;;;;;4995495;28;20049;-74
2023/10/05 07:46:06;;;;;;;15.13;2.60;;;15.00;99.90;;;;;;4996421;28;20038;-74
2023/10/05 07:48:32;;;;;;;21.27;3.33;;;15.10;99.90;;;;;;4995043;28;20383;-76
2023/10/05 07:50:58;;;;;;;16.30;3.42;;;15.10;99.90;;;;;;4994763;28;20053;-74
2023/10/05 07:53:25;;;;;;;15.25;2.63;;;15.10;99.90;;;;;;4995996;28;20046;-77
2023/10/05 07:55:52;;;;;;;15.45;3.25;;;15.20;99.90;;;;;;4994756;28;20486;-75
2023/10/05 07:58:19;;;;;;;15.68;2.97;;;15.20;99.90;;;;;;4994594;28;20042;-76
2023/10/05 08:00:48;;;;;;;17.73;3.28;;;15.20;99.90;;;;;;4994716;28;20403;-75
2023/10/05 08:03:14;;;;;;;11.57;2.95;;;15.20;99.90;;;;;;4995193;28;20049;-75
2023/10/05 08:05:40;;;;;;;13.10;2.83;;;15.20;99.90;;;;;;4994557;28;20074;-75
2023/10/05 08:08:05;;;;;;;12.98;2.60;;;15.20;99.90;;;;;;4994459;28;20089;-74
2023/10/05 08:10:31;;;;;;;15.90;3.10;;;15.20;99.90;;;;;;4994974;28;20038;-74
2023/10/05 08:13:02;;;;;;;18.33;3.20;;;15.20;99.90;;;;;;4994681;28;20038;-75
2023/10/05 08:15:28;;;;;;;16.48;3.20;;;15.20;99.90;;;;;;4994465;28;20097;-75
2023/10/05 08:17:54;;;;;;;19.42;3.55;;;15.30;99.90;;;;;;4994344;28;20050;-75
2023/10/05 08:20:20;;;;;;;15.82;3.40;;;15.30;99.90;;;;;;4995460;28;20441;-74
2023/10/05 08:22:46;;;;;;;14.48;2.72;;;15.30;99.90;;;;;;4994253;28;20046;-76
2023/10/05 08:25:12;;;;;;;16.55;3.28;;;15.30;99.90;;;;;;4995631;28;20050;-74
2023/10/05 08:27:45;;;;;;;16.13;3.10;;;15.30;99.90;;;;;;4994400;28;20092;-76
2023/10/05 08:30:12;;;;;;;13.95;2.60;;;15.30;99.90;;;;;;4978174;28;20042;-76
2023/10/05 08:32:39;;;;;;;15.43;3.00;;;15.30;99.90;;;;;;4993139;28;20042;-75
2023/10/05 08:35:14;;;;;;;23.27;4.18;;;15.40;99.90;;;;;;4994018;28;20088;-76
2023/10/05 08:37:48;;;;;;;19.40;3.60;;;15.40;99.90;;;;;;4994321;28;20054;-76
2023/10/05 08:43:16;;;;;;;15.07;3.08;;;15.50;99.90;;;;;;4996338;28;20062;-76
2023/10/05 08:45:47;;;;;;;15.43;3.50;;;15.50;99.90;;;;;;4993907;28;20093;-76
2023/10/05 08:48:29;;;;;;;15.98;3.22;;;15.50;99.90;;;;;;4995009;28;20489;-75
2023/10/05 08:51:04;;;;;;;14.32;2.97;;;15.50;99.90;;;;;;4993784;28;20046;-75
2023/10/05 08:53:30;;;;;;;20.27;4.13;;;15.50;99.90;;;;;;4993857;28;20486;-76
2023/10/05 08:55:59;;;;;;;15.27;3.10;;;15.60;99.90;;;;;;4993757;28;20053;-75
2023/10/05 08:58:28;;;;;;;15.55;3.25;;;15.60;99.90;;;;;;4993517;28;20046;-74
2023/10/05 09:00:58;;;;;;;13.88;3.00;;;15.60;99.90;;;;;;4994713;28;20045;-75
2023/10/05 09:03:35;;;;;;;15.80;2.90;;;15.70;99.90;;;;;;4993654;28;20042;-75
2023/10/05 09:06:20;;;;;;;17.13;3.30;;;15.70;99.90;;;;;;4994857;28;20110;-74
2023/10/05 09:08:54;;;;;;;13.57;2.85;;;15.80;99.90;;;;;;5012501;28;20157;-75
2023/10/05 09:11:33;;;;;;;13.48;3.00;;;15.80;99.90;;;;;;5013146;28;20076;-74
2023/10/05 09:14:40;;;;;;;15.07;3.38;;;15.90;99.90;;;;;;5012946;28;20080;-75
2023/10/05 09:17:08;;;;;;;14.90;3.08;;;15.90;99.90;;;;;;5012872;28;20046;-74
2023/10/05 09:19:37;;;;;;;15.05;3.03;;;16.00;99.90;;;;;;5013058;28;20038;-76
2023/10/05 09:22:14;;;;;;;19.90;4.00;;;16.00;99.90;;;;;;5013045;28;20066;-76
2023/10/05 09:24:52;;;;;;;17.92;3.65;;;16.10;99.90;;;;;;5012754;28;20049;-75
2023/10/05 09:27:19;;;;;;;17.17;3.33;;;16.10;99.90;;;;;;5012707;28;20046;-75
2023/10/05 09:29:48;;;;;;;12.73;2.97;;;16.10;99.90;;;;;;5013875;28;20041;-75
2023/10/05 09:32:22;;;;;;;14.88;3.03;;;16.20;99.90;;;;;;5012515;28;20124;-74
2023/10/05 09:34:50;;;;;;;15.77;2.88;;;16.20;99.90;;;;;;5014075;28;20038;-75
2023/10/05 09:37:18;;;;;;;11.10;2.97;;;16.30;99.90;;;;;;5012608;28;20462;-75
2023/10/05 09:39:54;;;;;;;11.55;3.00;;;16.30;99.90;;;;;;5013937;28;20048;-75
2023/10/05 09:42:26;;;;;;;12.40;3.30;;;16.40;99.90;;;;;;5012408;28;20052;-74
2023/10/05 09:45:01;;;;;;;14.77;3.20;;;16.40;99.90;;;;;;5012642;28;20128;-74
2023/10/05 09:47:32;;;;;;;20.55;3.28;;;16.50;99.90;;;;;;5013622;28;20077;-75
2023/10/05 09:50:09;;;;;;;14.40;3.22;;;16.50;99.90;;;;;;5013511;28;20543;-75
2023/10/05 09:52:45;;;;;;;11.35;2.90;;;16.50;99.90;;;;;;5013857;28;20081;-75
2023/10/05 09:55:18;;;;;;;14.27;3.20;;;16.50;99.90;;;;;;5012329;28;20048;-74
2023/10/05 09:57:51;;;;;;;19.13;3.58;;;16.50;99.90;;;;;;5013732;28;20463;-74
2023/10/05 10:00:47;;;;;;;13.85;3.22;;;16.50;99.90;;;;;;5012566;28;20478;-75
2023/10/05 10:03:14;;;;;;;16.17;3.47;;;16.50;99.90;;;;;;4996108;28;20458;-74
2023/10/05 10:06:10;;;;;;;15.85;2.97;;;16.50;99.90;;;;;;5012168;28;20112;-74
2023/10/05 10:08:51;;;;;;;14.68;3.58;;;16.50;99.90;;;;;;5012389;28;20085;-76
2023/10/05 10:11:18;;;;;;;13.93;2.80;;;16.60;99.90;;;;;;5013689;28;20042;-74
2023/10/05 10:14:05;;;;;;;15.13;3.50;;;16.60;99.90;;;;;;5013303;28;20038;-75
2023/10/05 10:16:33;;;;;;;15.35;3.40;;;16.60;99.90;;;;;;5012005;28;20045;-76
2023/10/05 10:19:07;;;;;;;14.02;3.17;;;16.60;99.90;;;;;;5013182;28;20034;-75
2023/10/05 10:21:41;;;;;;;18.33;2.85;;;16.60;99.90;;;;;;5011987;28;20110;-75
2023/10/05 10:24:11;;;;;;;14.23;2.80;;;16.60;99.90;;;;;;5012017;28;20093;-75
2023/10/05 10:26:43;;;;;;;13.00;3.08;;;16.70;99.90;;;;;;5012053;28;20042;-74
2023/10/05 10:29:13;;;;;;;18.17;3.42;;;16.70;99.90;;;;;;5011972;28;20108;-75
2023/10/05 10:31:48;;;;;;;14.38;3.13;;;16.60;99.90;;;;;;5011836;28;20042;-75
2023/10/05 10:34:28;;;;;;;;;;;16.60;99.90;;;;;;4996025;28;20088;-76
2023/10/05 10:36:56;;;;;;;11.63;3.40;;;16.70;99.90;;;;;;4995539;28;19917;-75
2023/10/05 10:39:23;;;;;;;15.30;3.78;;;16.70;99.90;;;;;;5013369;28;20073;-76
2023/10/05 10:42:01;;;;;;;17.40;3.58;;;16.80;99.90;;;;;;5013080;28;20048;-76
2023/10/05 10:44:27;;;;;;;12.75;3.80;;;16.80;99.90;;;;;;4995600;28;20046;-75
2023/10/05 10:47:10;;;;;;;16.05;3.70;;;16.60;99.90;;;;;;5013121;28;20030;-75
2023/10/05 10:49:39;;;;;;;14.10;3.05;;;16.40;99.90;;;;;;5012137;28;20042;-75
2023/10/05 10:52:11;;;;;;;15.18;4.13;;;16.20;99.90;;;;;;5011816;28;20497;-76
2023/10/05 10:54:42;;;;;;;13.38;3.53;;;16.10;99.90;;;;;;5014499;28;20033;-75
2023/10/05 10:57:09;;;;;;;19.35;3.88;;;16.00;99.90;;;;;;5016985;28;20034;-75
2023/10/05 10:59:41;;;;;;;12.57;3.67;;;16.00;99.90;;;;;;5015527;28;20042;-75
2023/10/05 11:02:23;;;;;;;18.75;4.55;;;15.90;99.90;;;;;;5016363;28;20507;-75
2023/10/05 11:04:49;;;;;;;16.85;4.05;;;16.00;99.90;;;;;;5015452;28;20046;-75
2023/10/05 11:07:15;;;;;;;14.00;3.40;;;16.00;99.90;;;;;;5015615;28;20050;-75
2023/10/05 11:09:48;;;;;;;15.75;4.20;;;16.30;99.90;;;;;;5015231;28;20064;-76
2023/10/05 11:12:21;;;;;;;20.27;4.35;;;16.60;99.90;;;;;;5016552;28;20375;-75
2023/10/05 11:14:47;;;;;;;20.85;3.95;;;16.80;99.90;;;;;;4998838;28;20041;-75
2023/10/05 11:17:36;;;;;;;17.75;4.10;;;16.90;99.90;;;;;;5015240;28;20038;-74
2023/10/05 11:20:25;;;;;;;15.77;3.20;;;16.90;99.90;;;;;;5015336;28;20109;-76
2023/10/05 11:22:48;;;;;;;14.65;2.80;;;17.00;99.90;;;;;;5014953;28;20512;-75
2023/10/05 11:25:14;;;;;;;14.48;3.17;;;17.00;99.90;;;;;;5014881;28;20046;-75
2023/10/05 11:27:56;;;;;;;11.65;3.10;;;17.00;99.90;;;;;;5014943;28;20130;-75
2023/10/05 11:30:25;;;;;;;19.13;4.20;;;17.00;99.90;;;;;;4998450;28;20520;-75
2023/10/05 11:32:56;;;;;;;15.85;3.33;;;17.10;99.90;;;;;;5016136;28;20512;-75
2023/10/05 11:35:28;;;;;;;13.68;2.60;;;17.20;99.90;;;;;;5014779;28;20046;-76
2023/10/05 11:37:58;;;;;;;15.73;2.97;;;17.40;99.90;;;;;;5014834;28;20046;-77
2023/10/05 11:40:30;;;;;;;10.85;2.28;;;17.70;99.90;;;;;;5014582;28;20046;-75
2023/10/05 11:42:56;;;;;;;9.63;2.70;;;17.80;99.90;;;;;;5014607;28;20038;-75
2023/10/05 11:45:23;;;;;;;10.02;3.10;;;17.80;99.90;;;;;;5014770;28;20121;-75
2023/10/05 11:47:53;;;;;;;10.82;2.33;;;17.80;99.90;;;;;;5015723;28;20524;-76
2023/10/05 11:50:32;;;;;;;10.73;2.30;;;17.70;99.90;;;;;;5015622;28;20078;-75
2023/10/05 11:52:58;;;;;;;11.18;2.80;;;17.70;99.90;;;;;;5014330;28;20041;-76
2023/10/05 11:55:24;;;;;;;9.82;2.83;;;17.60;99.90;;;;;;5015641;28;20096;-75
2023/10/05 11:57:52;;;;;;;13.55;2.30;;;17.60;99.90;;;;;;4998783;28;20494;-75
2023/10/05 12:00:18;;;;;;;13.40;2.95;;;17.70;99.90;;;;;;5014040;28;20489;-75
2023/10/05 12:02:44;;;;;;;9.27;2.08;;;17.70;99.90;;;;;;5015774;28;20037;-75
2023/10/05 12:05:13;;;;;;;12.23;2.40;;;17.70;99.90;;;;;;5005401;28;20070;-75
2023/10/05 12:07:41;;;;;;;10.57;2.30;;;17.70;99.90;;;;;;4995038;28;20055;-75
2023/10/05 12:10:09;;;;;;;11.68;2.30;;;17.60;99.90;;;;;;4994447;28;20465;-75
2023/10/05 12:12:36;;;;;;;12.70;3.22;;;17.60;99.90;;;;;;4995648;28;20046;-75
2023/10/05 12:15:12;;;;;;;13.23;3.80;;;17.60;99.90;;;;;;4994728;28;20401;-75
2023/10/05 12:17:43;;;;;;;10.95;2.83;;;17.50;99.90;;;;;;4994517;28;20499;-75
2023/10/05 12:20:13;;;;;;;14.13;2.70;;;17.50;99.90;;;;;;4994410;28;20034;-74
2023/10/05 12:22:39;;;;;;;8.65;2.33;;;17.50;99.90;;;;;;4994363;28;20054;-76
2023/10/05 12:25:07;;;;;;;14.30;2.70;;;17.50;99.90;;;;;;4995665;28;20086;-78
2023/10/05 12:27:35;;;;;;;11.52;2.53;;;17.50;99.90;;;;;;4994417;28;20046;-75
2023/10/05 12:30:10;;;;;;;11.25;2.50;;;17.40;99.90;;;;;;4995395;28;20047;-76
2023/10/05 12:32:39;;;;;;;15.00;2.78;;;17.40;99.90;;;;;;4995346;28;20046;-75
2023/10/05 12:35:16;;;;;;;11.23;2.65;;;17.40;99.90;;;;;;4995317;28;20039;-77
2023/10/05 12:37:46;;;;;;;13.50;2.40;;;17.40;99.90;;;;;;4994018;28;20046;-76
2023/10/05 12:40:18;;;;;;;12.63;3.10;;;17.40;99.90;;;;;;4993879;28;20092;-75
2023/10/05 12:42:54;;;;;;;11.77;3.05;;;17.40;99.90;;;;;;4993722;28;20493;-76
2023/10/05 12:45:23;;;;;;;8.73;2.70;;;17.50;99.90;;;;;;4993840;28;20034;-75
2023/10/05 12:47:53;;;;;;;11.50;2.58;;;17.50;99.90;;;;;;4994081;28;20460;-76
2023/10/05 12:50:22;;;;;;;10.05;2.40;;;17.60;99.90;;;;;;4993873;28;20552;-74
2023/10/05 12:52:51;;;;;;;7.15;2.45;;;17.50;99.90;;;;;;4993764;28;20056;-76
2023/10/05 12:55:29;;;;;;;10.23;2.20;;;17.50;99.90;;;;;;4993262;28;20117;-78
2023/10/05 12:57:55;;;;;;;14.95;3.03;;;17.60;99.90;;;;;;4992312;28;20397;-76
2023/10/05 13:00:27;;;;;;;11.43;2.20;;;17.50;99.90;;;;;;4993412;28;20050;-76
2023/10/05 13:02:53;;;;;;;9.15;2.53;;;17.40;99.90;;;;;;4993644;28;20129;-76
2023/10/05 13:05:21;;;;;;;13.80;2.78;;;17.40;99.90;;;;;;4993494;28;20042;-74
2023/10/05 13:07:48;;;;;;;10.30;2.83;;;17.40;99.90;;;;;;4993552;28;20116;-75
2023/10/05 13:10:21;;;;;;;9.68;2.58;;;17.40;99.90;;;;;;4994523;28;20054;-77
2023/10/05 13:12:51;;;;;;;13.68;2.42;;;17.30;99.90;;;;;;4993644;28;20133;-76
2023/10/05 13:15:19;;;;;;;12.35;2.97;;;17.30;99.90;;;;;;4993254;28;20042;-75
2023/10/05 13:17:46;;;;;;;12.18;2.60;;;17.30;99.90;;;;;;4992713;28;20088;-76
2023/10/05 13:20:15;;;;;;;15.70;3.25;;;17.30;99.90;;;;;;4993301;28;20053;-75
2023/10/05 13:22:44;;;;;;;15.15;2.80;;;17.50;99.90;;;;;;4994717;28;20042;-75
2023/10/05 13:25:10;;;;;;;10.82;3.15;;;17.70;99.90;;;;;;4994664;28;20042;-77
2023/10/05 13:27:36;;;;;;;14.23;2.78;;;17.80;99.90;;;;;;4994474;28;20082;-76
2023/10/05 13:30:03;;;;;;;11.93;2.78;;;17.80;99.90;;;;;;4993089;28;20042;-75
2023/10/05 13:32:31;;;;;;;20.52;3.60;;;17.70;99.90;;;;;;4993293;28;20433;-76
2023/10/05 13:34:57;;;;;;;10.00;2.50;;;17.80;99.90;;;;;;4994553;28;20034;-76
2023/10/05 13:37:23;;;;;;;10.18;2.83;;;17.80;99.90;;;;;;4993007;28;20046;-75
2023/10/05 13:39:53;;;;;;;11.82;2.40;;;17.80;99.90;;;;;;4994241;28;20041;-75
2023/10/05 13:42:26;;;;;;;10.88;2.45;;;17.80;99.90;;;;;;4992869;28;20046;-76
2023/10/05 13:44:53;;;;;;;13.10;2.60;;;17.90;99.90;;;;;;4994155;28;20038;-75
2023/10/05 13:47:18;;;;;;;12.52;2.75;;;17.90;99.90;;;;;;4992874;28;20048;-75
2023/10/05 13:49:51;;;;;;;9.90;2.35;;;17.80;99.90;;;;;;4993062;28;20050;-75
2023/10/05 13:52:20;;;;;;;11.25;2.65;;;17.80;99.90;;;;;;4994445;28;20354;-76
2023/10/05 13:54:48;;;;;;;10.95;2.50;;;17.80;99.90;;;;;;4993120;28;20402;-75
2023/10/05 13:57:15;;;;;;;14.05;3.17;;;17.80;99.90;;;;;;4992619;28;20124;-75
2023/10/05 13:59:40;;;;;;;12.63;2.95;;;17.70;99.90;;;;;;4977072;28;20394;-75
2023/10/05 14:02:07;;;;;;;12.13;3.67;;;17.60;99.90;;;;;;4993749;28;20030;-75
2023/10/05 14:04:37;;;;;;;13.23;2.85;;;17.50;99.90;;;;;;4993874;28;20046;-76
2023/10/05 14:07:07;;;;;;;13.27;2.40;;;17.50;99.90;;;;;;4992871;28;20046;-76
2023/10/05 14:09:41;;;;;;;9.48;2.30;;;17.40;99.90;;;;;;4992855;28;20125;-75
2023/10/05 14:12:07;;;;;;;13.95;2.92;;;17.40;99.90;;;;;;4992469;28;20057;-75
2023/10/05 14:14:33;;;;;;;15.30;2.40;;;17.40;99.90;;;;;;4992544;28;20046;-75
2023/10/05 14:17:06;;;;;;;10.90;2.40;;;17.40;99.90;;;;;;4992405;28;20100;-76
2023/10/05 14:19:33;;;;;;;12.40;3.00;;;17.40;99.90;;;;;;4976395;28;20046;-76
2023/10/05 14:22:00;;;;;;;11.55;2.35;;;17.30;99.90;;;;;;4992394;28;20456;-76
2023/10/05 14:24:27;;;;;;;12.38;2.90;;;17.30;99.90;;;;;;4993995;28;20042;-75
2023/10/05 14:26:54;;;;;;;9.02;2.25;;;17.30;99.90;;;;;;4992541;28;20042;-75
2023/10/05 14:29:24;;;;;;;12.25;2.70;;;17.30;99.90;;;;;;4993181;28;20046;-76
2023/10/05 14:31:55;;;;;;;11.30;2.22;;;17.30;99.90;;;;;;4996614;28;20112;-75
2023/10/05 14:34:21;;;;;;;13.13;2.08;;;17.30;99.90;;;;;;4997615;28;20049;-75
2023/10/05 14:36:49;;;;;;;5.25;1.60;;;17.20;99.90;;;;;;4997435;28;20042;-76
2023/10/05 14:39:28;;;;;;;8.13;1.90;;;17.20;99.90;;;;;;4997382;28;20400;-76
2023/10/05 14:41:56;;;;;;;8.73;1.77;;;17.20;99.90;;;;;;4996097;28;20486;-76
2023/10/05 14:44:22;;;;;;;8.05;1.98;;;17.20;99.90;;;;;;4997633;28;20076;-76
2023/10/05 14:46:49;;;;;;;7.72;1.80;;;17.20;99.90;;;;;;4996088;28;20038;-76
2023/10/05 14:49:21;;;;;;;9.05;2.10;;;17.20;99.90;;;;;;4996342;28;20058;-76
2023/10/05 14:51:50;;;;;;;6.40;2.00;;;17.20;99.90;;;;;;4996329;28;20512;-77
2023/10/05 14:54:16;;;;;;;12.63;2.70;;;17.20;99.90;;;;;;4996132;28;20049;-76
2023/10/05 14:56:43;;;;;;;8.80;1.98;;;17.20;99.90;;;;;;4996128;28;20093;-75
2023/10/05 14:59:09;;;;;;;8.15;1.60;;;17.20;99.90;;;;;;4995780;28;20050;-76
2023/10/05 15:01:35;;;;;;;9.38;1.88;;;17.20;99.90;;;;;;4997186;28;20046;-76
2023/10/05 15:04:01;;;;;;;11.38;1.80;;;17.20;99.90;;;;;;4995709;28;20482;-76
2023/10/05 15:06:27;;;;;;;11.82;2.17;;;17.20;99.90;;;;;;4979810;28;20053;-76
2023/10/05 15:08:52;;;;;;;9.32;1.60;;;17.30;99.90;;;;;;4997344;28;20373;-76
2023/10/05 15:11:19;;;;;;;8.27;2.45;;;17.30;99.90;;;;;;4996824;28;20447;-77
2023/10/05 15:13:45;;;;;;;9.48;2.13;;;17.30;99.90;;;;;;4995903;28;20453;-76
2023/10/05 15:16:12;;;;;;;8.05;1.60;;;17.40;99.90;;;;;;4995544;28;20050;-76
2023/10/05 15:18:41;;;;;;;8.07;1.98;;;17.30;99.90;;;;;;4997910;28;20065;-75
2023/10/05 15:21:08;;;;;;;10.77;2.20;;;17.30;99.90;;;;;;4995800;28;20394;-75
2023/10/05 15:23:34;;;;;;;9.13;1.70;;;17.30;99.90;;;;;;4995461;28;20066;-76
2023/10/05 15:26:00;;;;;;;7.88;1.88;;;17.30;99.90;;;;;;4995650;28;20042;-76
2023/10/05 15:28:26;;;;;;;8.70;2.10;;;17.30;99.90;;;;;;4995439;28;20498;-76
2023/10/05 15:30:53;;;;;;;6.47;1.75;;;17.20;99.90;;;;;;4979361;28;20049;-77
2023/10/05 15:33:19;;;;;;;5.70;1.90;;;17.20;99.90;;;;;;4995308;28;20054;-76
2023/10/05 15:35:45;;;;;;;9.88;1.60;;;17.20;99.90;;;;;;4995176;28;20057;-76
2023/10/05 15:38:11;;;;;;;9.10;1.92;;;17.20;99.90;;;;;;4995124;28;20053;-77
2023/10/05 15:40:37;;;;;;;6.25;1.70;;;17.20;99.90;;;;;;4996150;28;20042;-76
2023/10/05 15:43:04;;;;;;;11.90;2.60;;;17.20;99.90;;;;;;4996623;28;20489;-75
2023/10/05 15:45:30;;;;;;;11.02;2.67;;;17.10;99.90;;;;;;4995102;28;20050;-76
2023/10/05 15:47:56;;;;;;;7.13;1.90;;;17.10;99.90;;;;;;4995243;28;20046;-75
2023/10/05 15:50:24;;;;;;;9.70;1.85;;;17.10;99.90;;;;;;4995018;28;20390;-76
2023/10/05 15:52:51;;;;;;;8.82;1.88;;;17.20;99.90;;;;;;4994934;28;20046;-76
2023/10/05 15:55:19;;;;;;;8.68;2.17;;;17.30;99.90;;;;;;4995135;28;20467;-75
2023/10/05 15:57:47;;;;;;;9.35;2.75;;;17.30;99.90;;;;;;4994944;28;20047;-75
2023/10/05 16:00:16;;;;;;;9.43;2.28;;;17.30;99.90;;;;;;4996249;28;20034;-76
2023/10/05 16:02:52;;;;;;;7.35;2.33;;;17.30;99.90;;;;;;4994645;28;20090;-76
2023/10/05 16:05:19;;;;;;;10.75;2.00;;;17.30;99.90;;;;;;4995014;28;20108;-76
2023/10/05 16:07:47;;;;;;;9.27;2.10;;;17.30;99.90;;;;;;4995954;28;20117;-76
2023/10/05 16:10:15;;;;;;;11.05;2.83;;;17.20;99.90;;;;;;4996008;28;20065;-75
2023/10/05 16:12:42;;;;;;;7.65;2.03;;;17.10;99.90;;;;;;4994625;28;20058;-76